sensor_id;sensor_type;location;lat;lon;timestamp;P1;durP1;ratioP1;P2;durP2;ratioP2
30149;SDS011;16962;48.646;9.026;2023-12-04T00:01:19;53.65;;;26.80;;
30149;SDS011;16962;48.646;9.026;2023-12-04T00:04:06;58.85;;;28.60;;
30149;SDS011;16962;48.646;9.026;2023-12-04T00:06:53;65.78;;;28.35;;
30149;SDS011;16962;48.646;9.026;2023-12-04T00:09:43;53.45;;;26.88;;
30149;SDS011;16962;48.646;9.026;2023-12-04T00:12:30;65.70;;;28.15;;
30149;SDS011;16962;48.646;9.026;2023-12-04T00:15:22;54.97;;;26.65;;
30149;SDS011;16962;48.646;9.026;2023-12-04T00:18:10;64.07;;;28.75;;
30149;SDS011;16962;48.646;9.026;2023-12-04T00:21:01;64.85;;;29.52;;
30149;SDS011;16962;48.646;9.026;2023-12-04T00:23:50;67.72;;;29.30;;
30149;SDS011;16962;48.646;9.026;2023-12-04T00:26:37;58.30;;;26.30;;
30149;SDS011;16962;48.646;9.026;2023-12-04T00:29:24;52.55;;;24.52;;
30149;SDS011;16962;48.646;9.026;2023-12-04T00:32:12;55.60;;;25.38;;
30149;SDS011;16962;48.646;9.026;2023-12-04T00:34:59;56.50;;;26.05;;
30149;SDS011;16962;48.646;9.026;2023-12-04T00:37:49;56.95;;;26.15;;
30149;SDS011;16962;48.646;9.026;2023-12-04T00:40:36;57.67;;;26.05;;
30149;SDS011;16962;48.646;9.026;2023-12-04T00:43:23;53.17;;;25.00;;
30149;SDS011;16962;48.646;9.026;2023-12-04T00:46:13;56.67;;;26.38;;
30149;SDS011;16962;48.646;9.026;2023-12-04T00:49:00;48.97;;;23.70;;
30149;SDS011;16962;48.646;9.026;2023-12-04T00:51:47;58.25;;;26.23;;
30149;SDS011;16962;48.646;9.026;2023-12-04T00:54:35;59.78;;;25.55;;
30149;SDS011;16962;48.646;9.026;2023-12-04T00:57:26;57.78;;;26.13;;
30149;SDS011;16962;48.646;9.026;2023-12-04T01:00:19;59.20;;;25.58;;
30149;SDS011;16962;48.646;9.026;2023-12-04T01:03:06;54.88;;;26.13;;
30149;SDS011;16962;48.646;9.026;2023-12-04T01:05:53;52.65;;;24.25;;
30149;SDS011;16962;48.646;9.026;2023-12-04T01:08:41;52.72;;;24.48;;
30149;SDS011;16962;48.646;9.026;2023-12-04T01:11:31;48.72;;;24.38;;
30149;SDS011;16962;48.646;9.026;2023-12-04T01:14:18;47.13;;;22.15;;
30149;SDS011;16962;48.646;9.026;2023-12-04T01:17:06;52.78;;;20.58;;
30149;SDS011;16962;48.646;9.026;2023-12-04T01:19:53;49.03;;;23.48;;
30149;SDS011;16962;48.646;9.026;2023-12-04T01:22:46;52.00;;;24.20;;
30149;SDS011;16962;48.646;9.026;2023-12-04T01:25:36;45.35;;;21.23;;
30149;SDS011;16962;48.646;9.026;2023-12-04T01:28:25;51.22;;;22.48;;
30149;SDS011;16962;48.646;9.026;2023-12-04T01:31:12;44.30;;;21.13;;
30149;SDS011;16962;48.646;9.026;2023-12-04T01:34:00;41.15;;;19.92;;
30149;SDS011;16962;48.646;9.026;2023-12-04T01:36:48;39.22;;;19.90;;
30149;SDS011;16962;48.646;9.026;2023-12-04T01:39:35;45.00;;;21.35;;
30149;SDS011;16962;48.646;9.026;2023-12-04T01:42:23;48.95;;;23.63;;
30149;SDS011;16962;48.646;9.026;2023-12-04T01:45:12;41.50;;;19.38;;
30149;SDS011;16962;48.646;9.026;2023-12-04T01:47:59;47.55;;;20.58;;
30149;SDS011;16962;48.646;9.026;2023-12-04T01:50:47;45.28;;;21.08;;
30149;SDS011;16962;48.646;9.026;2023-12-04T01:53:35;45.42;;;21.88;;
30149;SDS011;16962;48.646;9.026;2023-12-04T01:56:26;43.78;;;20.35;;
30149;SDS011;16962;48.646;9.026;2023-12-04T01:59:16;44.85;;;21.50;;
30149;SDS011;16962;48.646;9.026;2023-12-04T02:02:04;48.13;;;21.05;;
30149;SDS011;16962;48.646;9.026;2023-12-04T02:04:54;46.83;;;21.67;;
30149;SDS011;16962;48.646;9.026;2023-12-04T02:07:43;41.90;;;20.08;;
30149;SDS011;16962;48.646;9.026;2023-12-04T02:10:31;46.90;;;20.42;;
30149;SDS011;16962;48.646;9.026;2023-12-04T02:13:18;46.72;;;20.40;;
30149;SDS011;16962;48.646;9.026;2023-12-04T02:16:06;44.33;;;21.30;;
30149;SDS011;16962;48.646;9.026;2023-12-04T02:18:56;43.67;;;22.50;;
30149;SDS011;16962;48.646;9.026;2023-12-04T02:21:43;43.03;;;20.63;;
30149;SDS011;16962;48.646;9.026;2023-12-04T02:24:31;41.53;;;18.88;;
30149;SDS011;16962;48.646;9.026;2023-12-04T02:27:24;39.78;;;19.80;;
30149;SDS011;16962;48.646;9.026;2023-12-04T02:30:14;37.28;;;18.95;;
30149;SDS011;16962;48.646;9.026;2023-12-04T02:33:05;40.00;;;19.60;;
30149;SDS011;16962;48.646;9.026;2023-12-04T02:35:53;40.22;;;19.50;;
30149;SDS011;16962;48.646;9.026;2023-12-04T02:38:43;42.42;;;18.38;;
30149;SDS011;16962;48.646;9.026;2023-12-04T02:41:31;43.30;;;21.30;;
30149;SDS011;16962;48.646;9.026;2023-12-04T02:44:18;42.72;;;20.83;;
30149;SDS011;16962;48.646;9.026;2023-12-04T02:47:07;38.70;;;19.35;;
30149;SDS011;16962;48.646;9.026;2023-12-04T02:49:55;39.35;;;19.05;;
30149;SDS011;16962;48.646;9.026;2023-12-04T02:52:43;40.35;;;20.17;;
30149;SDS011;16962;48.646;9.026;2023-12-04T02:55:30;45.22;;;18.98;;
30149;SDS011;16962;48.646;9.026;2023-12-04T02:58:20;43.92;;;20.40;;
30149;SDS011;16962;48.646;9.026;2023-12-04T03:01:07;46.90;;;19.67;;
30149;SDS011;16962;48.646;9.026;2023-12-04T03:03:57;42.05;;;19.70;;
30149;SDS011;16962;48.646;9.026;2023-12-04T03:06:44;47.10;;;20.58;;
30149;SDS011;16962;48.646;9.026;2023-12-04T03:09:31;43.22;;;19.65;;
30149;SDS011;16962;48.646;9.026;2023-12-04T03:12:37;43.33;;;19.42;;
30149;SDS011;16962;48.646;9.026;2023-12-04T03:15:24;40.92;;;19.02;;
30149;SDS011;16962;48.646;9.026;2023-12-04T03:18:15;40.72;;;18.85;;
30149;SDS011;16962;48.646;9.026;2023-12-04T03:21:02;41.35;;;18.42;;
30149;SDS011;16962;48.646;9.026;2023-12-04T03:23:50;38.10;;;17.30;;
30149;SDS011;16962;48.646;9.026;2023-12-04T03:26:37;41.08;;;19.05;;
30149;SDS011;16962;48.646;9.026;2023-12-04T03:29:24;40.85;;;18.65;;
30149;SDS011;16962;48.646;9.026;2023-12-04T03:32:15;36.58;;;16.98;;
30149;SDS011;16962;48.646;9.026;2023-12-04T03:35:02;41.28;;;18.33;;
30149;SDS011;16962;48.646;9.026;2023-12-04T03:37:49;40.45;;;18.40;;
30149;SDS011;16962;48.646;9.026;2023-12-04T03:40:39;42.15;;;19.30;;
30149;SDS011;16962;48.646;9.026;2023-12-04T03:43:26;37.47;;;18.02;;
30149;SDS011;16962;48.646;9.026;2023-12-04T03:46:16;42.92;;;19.85;;
30149;SDS011;16962;48.646;9.026;2023-12-04T03:49:04;39.15;;;20.75;;
30149;SDS011;16962;48.646;9.026;2023-12-04T03:51:52;45.05;;;21.17;;
30149;SDS011;16962;48.646;9.026;2023-12-04T03:54:39;41.42;;;18.50;;
30149;SDS011;16962;48.646;9.026;2023-12-04T03:57:28;42.33;;;19.58;;
30149;SDS011;16962;48.646;9.026;2023-12-04T04:00:15;40.53;;;19.55;;
30149;SDS011;16962;48.646;9.026;2023-12-04T04:03:03;41.80;;;18.48;;
30149;SDS011;16962;48.646;9.026;2023-12-04T04:05:50;40.38;;;18.77;;
30149;SDS011;16962;48.646;9.026;2023-12-04T04:08:39;39.97;;;18.10;;
30149;SDS011;16962;48.646;9.026;2023-12-04T04:11:26;40.35;;;18.58;;
30149;SDS011;16962;48.646;9.026;2023-12-04T04:14:14;42.35;;;18.95;;
30149;SDS011;16962;48.646;9.026;2023-12-04T04:17:01;41.22;;;19.23;;
30149;SDS011;16962;48.646;9.026;2023-12-04T04:19:48;41.67;;;19.88;;
30149;SDS011;16962;48.646;9.026;2023-12-04T04:22:35;43.15;;;20.25;;
30149;SDS011;16962;48.646;9.026;2023-12-04T04:25:27;41.97;;;18.95;;
30149;SDS011;16962;48.646;9.026;2023-12-04T04:28:14;44.05;;;20.77;;
30149;SDS011;16962;48.646;9.026;2023-12-04T04:31:04;38.20;;;19.65;;
30149;SDS011;16962;48.646;9.026;2023-12-04T04:36:42;40.05;;;19.30;;
30149;SDS011;16962;48.646;9.026;2023-12-04T04:39:30;41.75;;;19.95;;
30149;SDS011;16962;48.646;9.026;2023-12-04T04:42:17;40.50;;;18.88;;
30149;SDS011;16962;48.646;9.026;2023-12-04T04:45:05;42.63;;;20.20;;
30149;SDS011;16962;48.646;9.026;2023-12-04T04:47:52;39.60;;;18.48;;
30149;SDS011;16962;48.646;9.026;2023-12-04T04:50:40;37.50;;;19.58;;
30149;SDS011;16962;48.646;9.026;2023-12-04T04:53:27;38.97;;;18.42;;
30149;SDS011;16962;48.646;9.026;2023-12-04T04:56:19;40.65;;;20.38;;
30149;SDS011;16962;48.646;9.026;2023-12-04T04:59:08;36.47;;;18.63;;
30149;SDS011;16962;48.646;9.026;2023-12-04T05:01:56;35.97;;;17.80;;
30149;SDS011;16962;48.646;9.026;2023-12-04T05:04:43;36.50;;;18.55;;
30149;SDS011;16962;48.646;9.026;2023-12-04T05:07:30;38.78;;;17.67;;
30149;SDS011;16962;48.646;9.026;2023-12-04T05:10:18;37.22;;;17.80;;
30149;SDS011;16962;48.646;9.026;2023-12-04T05:13:07;34.72;;;17.55;;
30149;SDS011;16962;48.646;9.026;2023-12-04T05:15:57;38.30;;;17.75;;
30149;SDS011;16962;48.646;9.026;2023-12-04T05:18:46;37.78;;;18.23;;
30149;SDS011;16962;48.646;9.026;2023-12-04T05:21:34;35.97;;;17.35;;
30149;SDS011;16962;48.646;9.026;2023-12-04T05:24:21;36.55;;;17.95;;
30149;SDS011;16962;48.646;9.026;2023-12-04T05:27:08;37.95;;;18.25;;
30149;SDS011;16962;48.646;9.026;2023-12-04T05:29:55;35.78;;;17.65;;
30149;SDS011;16962;48.646;9.026;2023-12-04T05:32:43;43.00;;;21.05;;
30149;SDS011;16962;48.646;9.026;2023-12-04T05:35:30;39.33;;;18.70;;
30149;SDS011;16962;48.646;9.026;2023-12-04T05:38:20;38.78;;;17.35;;
30149;SDS011;16962;48.646;9.026;2023-12-04T05:41:07;40.65;;;19.40;;
30149;SDS011;16962;48.646;9.026;2023-12-04T05:43:55;36.55;;;17.80;;
30149;SDS011;16962;48.646;9.026;2023-12-04T05:46:46;33.05;;;17.08;;
30149;SDS011;16962;48.646;9.026;2023-12-04T05:49:36;35.67;;;17.42;;
30149;SDS011;16962;48.646;9.026;2023-12-04T05:52:23;36.30;;;17.58;;
30149;SDS011;16962;48.646;9.026;2023-12-04T05:55:10;35.35;;;17.50;;
30149;SDS011;16962;48.646;9.026;2023-12-04T05:57:58;34.90;;;17.13;;
30149;SDS011;16962;48.646;9.026;2023-12-04T06:00:48;38.08;;;18.95;;
30149;SDS011;16962;48.646;9.026;2023-12-04T06:03:36;41.22;;;18.25;;
30149;SDS011;16962;48.646;9.026;2023-12-04T06:06:23;35.63;;;16.90;;
30149;SDS011;16962;48.646;9.026;2023-12-04T06:09:13;32.63;;;15.80;;
30149;SDS011;16962;48.646;9.026;2023-12-04T06:12:03;32.08;;;15.48;;
30149;SDS011;16962;48.646;9.026;2023-12-04T06:14:54;35.95;;;18.15;;
30149;SDS011;16962;48.646;9.026;2023-12-04T06:17:44;32.72;;;16.63;;
30149;SDS011;16962;48.646;9.026;2023-12-04T06:20:32;32.80;;;16.90;;
30149;SDS011;16962;48.646;9.026;2023-12-04T06:23:19;34.92;;;16.92;;
30149;SDS011;16962;48.646;9.026;2023-12-04T06:26:07;28.80;;;14.23;;
30149;SDS011;16962;48.646;9.026;2023-12-04T06:28:55;29.67;;;15.05;;
30149;SDS011;16962;48.646;9.026;2023-12-04T06:31:45;30.30;;;15.13;;
30149;SDS011;16962;48.646;9.026;2023-12-04T06:34:35;26.58;;;14.88;;
30149;SDS011;16962;48.646;9.026;2023-12-04T06:37:25;27.80;;;13.88;;
30149;SDS011;16962;48.646;9.026;2023-12-04T06:40:12;27.55;;;15.13;;
30149;SDS011;16962;48.646;9.026;2023-12-04T06:43:00;30.63;;;14.65;;
30149;SDS011;16962;48.646;9.026;2023-12-04T06:45:49;32.20;;;15.63;;
30149;SDS011;16962;48.646;9.026;2023-12-04T06:48:37;34.88;;;16.42;;
30149;SDS011;16962;48.646;9.026;2023-12-04T06:51:25;30.77;;;16.08;;
30149;SDS011;16962;48.646;9.026;2023-12-04T06:54:14;32.17;;;16.40;;
30149;SDS011;16962;48.646;9.026;2023-12-04T06:57:04;37.30;;;17.75;;
30149;SDS011;16962;48.646;9.026;2023-12-04T06:59:53;37.08;;;17.85;;
30149;SDS011;16962;48.646;9.026;2023-12-04T07:02:43;29.92;;;16.15;;
30149;SDS011;16962;48.646;9.026;2023-12-04T07:05:36;38.85;;;17.75;;
30149;SDS011;16962;48.646;9.026;2023-12-04T07:08:27;45.17;;;21.70;;
30149;SDS011;16962;48.646;9.026;2023-12-04T07:11:16;47.00;;;22.05;;
30149;SDS011;16962;48.646;9.026;2023-12-04T07:14:08;50.38;;;22.13;;
30149;SDS011;16962;48.646;9.026;2023-12-04T07:16:59;54.63;;;25.55;;
30149;SDS011;16962;48.646;9.026;2023-12-04T07:19:50;44.80;;;24.52;;
30149;SDS011;16962;48.646;9.026;2023-12-04T07:22:37;43.50;;;21.52;;
30149;SDS011;16962;48.646;9.026;2023-12-04T07:25:25;41.10;;;19.73;;
30149;SDS011;16962;48.646;9.026;2023-12-04T07:28:13;43.60;;;22.50;;
30149;SDS011;16962;48.646;9.026;2023-12-04T07:31:02;47.53;;;21.85;;
30149;SDS011;16962;48.646;9.026;2023-12-04T07:33:50;47.45;;;22.88;;
30149;SDS011;16962;48.646;9.026;2023-12-04T07:36:39;45.08;;;22.80;;
30149;SDS011;16962;48.646;9.026;2023-12-04T07:39:26;41.13;;;20.13;;
30149;SDS011;16962;48.646;9.026;2023-12-04T07:42:14;38.28;;;19.92;;
30149;SDS011;16962;48.646;9.026;2023-12-04T07:45:01;40.38;;;20.10;;
30149;SDS011;16962;48.646;9.026;2023-12-04T07:47:49;38.47;;;20.63;;
30149;SDS011;16962;48.646;9.026;2023-12-04T07:50:37;44.60;;;20.10;;
30149;SDS011;16962;48.646;9.026;2023-12-04T07:53:24;42.53;;;21.25;;
30149;SDS011;16962;48.646;9.026;2023-12-04T07:56:13;40.22;;;18.88;;
30149;SDS011;16962;48.646;9.026;2023-12-04T07:59:00;35.38;;;17.83;;
30149;SDS011;16962;48.646;9.026;2023-12-04T08:01:48;38.28;;;18.65;;
30149;SDS011;16962;48.646;9.026;2023-12-04T08:04:38;37.25;;;19.73;;
30149;SDS011;16962;48.646;9.026;2023-12-04T08:07:34;38.00;;;19.52;;
30149;SDS011;16962;48.646;9.026;2023-12-04T08:10:22;42.95;;;21.40;;
30149;SDS011;16962;48.646;9.026;2023-12-04T08:13:12;45.83;;;23.10;;
30149;SDS011;16962;48.646;9.026;2023-12-04T08:16:00;48.25;;;22.83;;
30149;SDS011;16962;48.646;9.026;2023-12-04T08:18:52;39.78;;;20.73;;
30149;SDS011;16962;48.646;9.026;2023-12-04T08:21:43;35.95;;;19.27;;
30149;SDS011;16962;48.646;9.026;2023-12-04T08:24:30;36.13;;;20.33;;
30149;SDS011;16962;48.646;9.026;2023-12-04T08:27:18;39.50;;;19.77;;
30149;SDS011;16962;48.646;9.026;2023-12-04T08:30:06;34.15;;;18.48;;
30149;SDS011;16962;48.646;9.026;2023-12-04T08:32:55;34.70;;;18.67;;
30149;SDS011;16962;48.646;9.026;2023-12-04T08:35:45;38.00;;;18.83;;
30149;SDS011;16962;48.646;9.026;2023-12-04T08:38:32;37.22;;;21.55;;
30149;SDS011;16962;48.646;9.026;2023-12-04T08:41:20;49.10;;;25.00;;
30149;SDS011;16962;48.646;9.026;2023-12-04T08:44:07;45.08;;;23.15;;
30149;SDS011;16962;48.646;9.026;2023-12-04T08:46:55;42.67;;;21.13;;
30149;SDS011;16962;48.646;9.026;2023-12-04T08:49:46;41.78;;;20.67;;
30149;SDS011;16962;48.646;9.026;2023-12-04T08:52:35;40.97;;;21.55;;
30149;SDS011;16962;48.646;9.026;2023-12-04T08:55:22;44.25;;;20.55;;
30149;SDS011;16962;48.646;9.026;2023-12-04T08:58:10;40.17;;;19.33;;
30149;SDS011;16962;48.646;9.026;2023-12-04T09:00:58;37.25;;;19.80;;
30149;SDS011;16962;48.646;9.026;2023-12-04T09:03:49;34.65;;;19.35;;
30149;SDS011;16962;48.646;9.026;2023-12-04T09:06:38;33.83;;;18.73;;
30149;SDS011;16962;48.646;9.026;2023-12-04T09:09:48;38.38;;;20.00;;
30149;SDS011;16962;48.646;9.026;2023-12-04T09:12:39;35.63;;;19.30;;
30149;SDS011;16962;48.646;9.026;2023-12-04T09:15:28;36.85;;;20.60;;
30149;SDS011;16962;48.646;9.026;2023-12-04T09:18:15;45.38;;;24.55;;
30149;SDS011;16962;48.646;9.026;2023-12-04T09:21:04;45.80;;;23.50;;
30149;SDS011;16962;48.646;9.026;2023-12-04T09:23:52;41.13;;;21.38;;
30149;SDS011;16962;48.646;9.026;2023-12-04T09:26:39;40.92;;;22.75;;
30149;SDS011;16962;48.646;9.026;2023-12-04T09:29:27;41.13;;;22.58;;
30149;SDS011;16962;48.646;9.026;2023-12-04T09:32:17;37.55;;;20.23;;
30149;SDS011;16962;48.646;9.026;2023-12-04T09:35:07;35.40;;;20.65;;
30149;SDS011;16962;48.646;9.026;2023-12-04T09:37:56;39.65;;;22.38;;
30149;SDS011;16962;48.646;9.026;2023-12-04T09:40:43;41.33;;;20.98;;
30149;SDS011;16962;48.646;9.026;2023-12-04T09:43:32;36.92;;;20.10;;
30149;SDS011;16962;48.646;9.026;2023-12-04T09:46:29;31.70;;;18.13;;
30149;SDS011;16962;48.646;9.026;2023-12-04T09:49:17;28.70;;;16.98;;
30149;SDS011;16962;48.646;9.026;2023-12-04T09:52:07;32.78;;;16.63;;
30149;SDS011;16962;48.646;9.026;2023-12-04T09:54:55;32.75;;;16.70;;
30149;SDS011;16962;48.646;9.026;2023-12-04T09:57:43;28.45;;;15.30;;
30149;SDS011;16962;48.646;9.026;2023-12-04T10:00:36;27.30;;;15.35;;
30149;SDS011;16962;48.646;9.026;2023-12-04T10:03:24;31.95;;;16.17;;
30149;SDS011;16962;48.646;9.026;2023-12-04T10:06:15;24.88;;;14.65;;
30149;SDS011;16962;48.646;9.026;2023-12-04T10:09:08;27.92;;;16.60;;
30149;SDS011;16962;48.646;9.026;2023-12-04T10:11:58;25.20;;;14.00;;
30149;SDS011;16962;48.646;9.026;2023-12-04T10:14:58;24.13;;;14.38;;
30149;SDS011;16962;48.646;9.026;2023-12-04T10:17:54;24.60;;;13.45;;
30149;SDS011;16962;48.646;9.026;2023-12-04T10:20:51;25.85;;;13.55;;
30149;SDS011;16962;48.646;9.026;2023-12-04T10:23:41;22.60;;;13.55;;
30149;SDS011;16962;48.646;9.026;2023-12-04T10:26:29;26.65;;;15.68;;
30149;SDS011;16962;48.646;9.026;2023-12-04T10:29:17;28.30;;;13.65;;
30149;SDS011;16962;48.646;9.026;2023-12-04T10:32:05;25.33;;;13.35;;
30149;SDS011;16962;48.646;9.026;2023-12-04T10:34:54;19.48;;;11.98;;
30149;SDS011;16962;48.646;9.026;2023-12-04T10:37:42;23.02;;;13.80;;
30149;SDS011;16962;48.646;9.026;2023-12-04T10:40:30;22.73;;;14.00;;
30149;SDS011;16962;48.646;9.026;2023-12-04T10:43:23;21.52;;;12.75;;
30149;SDS011;16962;48.646;9.026;2023-12-04T10:46:11;25.60;;;14.25;;
30149;SDS011;16962;48.646;9.026;2023-12-04T10:48:59;25.90;;;14.48;;
30149;SDS011;16962;48.646;9.026;2023-12-04T10:51:53;24.95;;;13.52;;
30149;SDS011;16962;48.646;9.026;2023-12-04T10:54:43;20.77;;;12.77;;
30149;SDS011;16962;48.646;9.026;2023-12-04T10:57:31;20.35;;;12.07;;
30149;SDS011;16962;48.646;9.026;2023-12-04T11:00:26;24.42;;;13.40;;
30149;SDS011;16962;48.646;9.026;2023-12-04T11:03:30;25.23;;;13.27;;
30149;SDS011;16962;48.646;9.026;2023-12-04T11:06:25;22.65;;;13.57;;
30149;SDS011;16962;48.646;9.026;2023-12-04T11:09:19;21.60;;;13.48;;
30149;SDS011;16962;48.646;9.026;2023-12-04T11:12:13;20.13;;;11.65;;
30149;SDS011;16962;48.646;9.026;2023-12-04T11:15:08;22.45;;;12.98;;
30149;SDS011;16962;48.646;9.026;2023-12-04T11:18:03;22.45;;;14.27;;
30149;SDS011;16962;48.646;9.026;2023-12-04T11:23:43;21.50;;;13.48;;
30149;SDS011;16962;48.646;9.026;2023-12-04T11:26:33;21.73;;;12.95;;
30149;SDS011;16962;48.646;9.026;2023-12-04T11:29:21;27.08;;;14.73;;
30149;SDS011;16962;48.646;9.026;2023-12-04T11:32:16;21.42;;;12.98;;
30149;SDS011;16962;48.646;9.026;2023-12-04T11:35:07;22.88;;;14.13;;
30149;SDS011;16962;48.646;9.026;2023-12-04T11:38:07;22.48;;;13.88;;
30149;SDS011;16962;48.646;9.026;2023-12-04T11:40:58;18.35;;;11.55;;
30149;SDS011;16962;48.646;9.026;2023-12-04T11:43:46;23.02;;;13.38;;
30149;SDS011;16962;48.646;9.026;2023-12-04T11:46:34;49.40;;;25.60;;
30149;SDS011;16962;48.646;9.026;2023-12-04T11:52:12;26.58;;;15.90;;
30149;SDS011;16962;48.646;9.026;2023-12-04T11:57:54;24.35;;;14.52;;
30149;SDS011;16962;48.646;9.026;2023-12-04T12:00:44;23.02;;;14.48;;
30149;SDS011;16962;48.646;9.026;2023-12-04T12:03:37;21.35;;;13.57;;
30149;SDS011;16962;48.646;9.026;2023-12-04T12:06:27;21.50;;;13.32;;
30149;SDS011;16962;48.646;9.026;2023-12-04T12:09:15;17.13;;;10.80;;
30149;SDS011;16962;48.646;9.026;2023-12-04T12:12:03;16.60;;;11.38;;
30149;SDS011;16962;48.646;9.026;2023-12-04T12:14:53;18.77;;;11.77;;
30149;SDS011;16962;48.646;9.026;2023-12-04T12:17:41;17.25;;;11.48;;
30149;SDS011;16962;48.646;9.026;2023-12-04T12:20:30;17.30;;;10.80;;
30149;SDS011;16962;48.646;9.026;2023-12-04T12:23:20;19.13;;;11.57;;
30149;SDS011;16962;48.646;9.026;2023-12-04T12:26:08;20.70;;;13.57;;
30149;SDS011;16962;48.646;9.026;2023-12-04T12:28:58;22.45;;;13.65;;
30149;SDS011;16962;48.646;9.026;2023-12-04T12:31:48;21.30;;;13.80;;
30149;SDS011;16962;48.646;9.026;2023-12-04T12:34:39;22.35;;;12.93;;
30149;SDS011;16962;48.646;9.026;2023-12-04T12:37:27;22.92;;;14.05;;
30149;SDS011;16962;48.646;9.026;2023-12-04T12:40:15;21.80;;;13.77;;
30149;SDS011;16962;48.646;9.026;2023-12-04T12:43:03;23.48;;;14.88;;
30149;SDS011;16962;48.646;9.026;2023-12-04T12:46:02;28.42;;;17.50;;
30149;SDS011;16962;48.646;9.026;2023-12-04T12:48:52;28.85;;;15.60;;
30149;SDS011;16962;48.646;9.026;2023-12-04T12:51:42;31.08;;;17.33;;
30149;SDS011;16962;48.646;9.026;2023-12-04T12:54:30;30.67;;;16.92;;
30149;SDS011;16962;48.646;9.026;2023-12-04T12:57:19;28.17;;;16.40;;
30149;SDS011;16962;48.646;9.026;2023-12-04T13:00:10;29.15;;;15.65;;
30149;SDS011;16962;48.646;9.026;2023-12-04T13:03:01;26.40;;;15.75;;
30149;SDS011;16962;48.646;9.026;2023-12-04T13:05:49;29.60;;;15.93;;
30149;SDS011;16962;48.646;9.026;2023-12-04T13:08:36;24.52;;;15.40;;
30149;SDS011;16962;48.646;9.026;2023-12-04T13:11:24;24.40;;;15.88;;
30149;SDS011;16962;48.646;9.026;2023-12-04T13:14:12;25.80;;;15.50;;
30149;SDS011;16962;48.646;9.026;2023-12-04T13:17:00;31.20;;;17.33;;
30149;SDS011;16962;48.646;9.026;2023-12-04T13:19:48;29.17;;;17.25;;
30149;SDS011;16962;48.646;9.026;2023-12-04T13:22:40;29.80;;;18.40;;
30149;SDS011;16962;48.646;9.026;2023-12-04T13:25:28;30.00;;;18.42;;
30149;SDS011;16962;48.646;9.026;2023-12-04T13:28:16;33.28;;;18.92;;
30149;SDS011;16962;48.646;9.026;2023-12-04T13:31:17;31.40;;;18.60;;
30149;SDS011;16962;48.646;9.026;2023-12-04T13:34:06;31.42;;;19.13;;
30149;SDS011;16962;48.646;9.026;2023-12-04T13:36:59;28.58;;;16.92;;
30149;SDS011;16962;48.646;9.026;2023-12-04T13:39:46;27.52;;;16.17;;
30149;SDS011;16962;48.646;9.026;2023-12-04T13:42:35;25.23;;;14.50;;
30149;SDS011;16962;48.646;9.026;2023-12-04T13:45:42;23.00;;;13.85;;
30149;SDS011;16962;48.646;9.026;2023-12-04T13:48:30;23.65;;;14.48;;
30149;SDS011;16962;48.646;9.026;2023-12-04T13:51:17;23.83;;;13.65;;
30149;SDS011;16962;48.646;9.026;2023-12-04T13:54:07;23.48;;;13.93;;
30149;SDS011;16962;48.646;9.026;2023-12-04T13:57:07;22.10;;;14.70;;
30149;SDS011;16962;48.646;9.026;2023-12-04T13:59:55;25.55;;;15.20;;
30149;SDS011;16962;48.646;9.026;2023-12-04T14:02:45;28.17;;;15.60;;
30149;SDS011;16962;48.646;9.026;2023-12-04T14:05:34;24.73;;;15.48;;
30149;SDS011;16962;48.646;9.026;2023-12-04T14:08:22;28.75;;;16.00;;
30149;SDS011;16962;48.646;9.026;2023-12-04T14:11:12;34.15;;;18.55;;
30149;SDS011;16962;48.646;9.026;2023-12-04T14:14:01;32.60;;;18.08;;
30149;SDS011;16962;48.646;9.026;2023-12-04T14:16:52;31.30;;;17.48;;
30149;SDS011;16962;48.646;9.026;2023-12-04T14:19:42;31.98;;;18.48;;
30149;SDS011;16962;48.646;9.026;2023-12-04T14:22:30;35.83;;;17.65;;
30149;SDS011;16962;48.646;9.026;2023-12-04T14:25:17;30.98;;;17.98;;
30149;SDS011;16962;48.646;9.026;2023-12-04T14:28:05;34.55;;;19.65;;
30149;SDS011;16962;48.646;9.026;2023-12-04T14:30:54;30.08;;;18.55;;
30149;SDS011;16962;48.646;9.026;2023-12-04T14:33:45;32.72;;;19.70;;
30149;SDS011;16962;48.646;9.026;2023-12-04T14:36:33;30.52;;;17.98;;
30149;SDS011;16962;48.646;9.026;2023-12-04T14:39:26;35.78;;;20.33;;
30149;SDS011;16962;48.646;9.026;2023-12-04T14:42:14;37.67;;;21.48;;
30149;SDS011;16962;48.646;9.026;2023-12-04T14:45:02;32.58;;;18.83;;
30149;SDS011;16962;48.646;9.026;2023-12-04T14:47:49;29.73;;;17.20;;
30149;SDS011;16962;48.646;9.026;2023-12-04T14:50:39;29.67;;;16.45;;
30149;SDS011;16962;48.646;9.026;2023-12-04T14:53:26;35.63;;;19.92;;
30149;SDS011;16962;48.646;9.026;2023-12-04T14:56:14;27.20;;;15.45;;
30149;SDS011;16962;48.646;9.026;2023-12-04T14:59:40;31.63;;;17.27;;
30149;SDS011;16962;48.646;9.026;2023-12-04T15:02:46;20.60;;;13.05;;
30149;SDS011;16962;48.646;9.026;2023-12-04T15:05:36;28.38;;;14.52;;
30149;SDS011;16962;48.646;9.026;2023-12-04T15:08:43;20.55;;;13.15;;
30149;SDS011;16962;48.646;9.026;2023-12-04T15:11:31;22.02;;;11.25;;
30149;SDS011;16962;48.646;9.026;2023-12-04T15:14:42;19.52;;;11.70;;
30149;SDS011;16962;48.646;9.026;2023-12-04T15:17:52;20.77;;;12.57;;
30149;SDS011;16962;48.646;9.026;2023-12-04T15:21:00;18.38;;;11.70;;
30149;SDS011;16962;48.646;9.026;2023-12-04T15:23:51;29.83;;;16.30;;
30149;SDS011;16962;48.646;9.026;2023-12-04T15:26:38;38.92;;;22.13;;
30149;SDS011;16962;48.646;9.026;2023-12-04T15:29:26;29.42;;;17.13;;
30149;SDS011;16962;48.646;9.026;2023-12-04T15:32:14;25.92;;;16.58;;
30149;SDS011;16962;48.646;9.026;2023-12-04T15:35:02;22.58;;;13.63;;
30149;SDS011;16962;48.646;9.026;2023-12-04T15:37:53;26.70;;;16.35;;
30149;SDS011;16962;48.646;9.026;2023-12-04T15:40:41;28.25;;;15.48;;
30149;SDS011;16962;48.646;9.026;2023-12-04T15:43:28;24.23;;;15.23;;
30149;SDS011;16962;48.646;9.026;2023-12-04T15:46:16;29.15;;;17.15;;
30149;SDS011;16962;48.646;9.026;2023-12-04T15:49:06;24.48;;;15.48;;
30149;SDS011;16962;48.646;9.026;2023-12-04T15:51:57;25.75;;;15.70;;
30149;SDS011;16962;48.646;9.026;2023-12-04T15:54:45;23.65;;;14.70;;
30149;SDS011;16962;48.646;9.026;2023-12-04T15:57:33;23.02;;;13.65;;
30149;SDS011;16962;48.646;9.026;2023-12-04T16:00:25;20.65;;;12.77;;
30149;SDS011;16962;48.646;9.026;2023-12-04T16:03:12;19.70;;;11.38;;
30149;SDS011;16962;48.646;9.026;2023-12-04T16:06:01;19.90;;;10.95;;
30149;SDS011;16962;48.646;9.026;2023-12-04T16:08:48;20.45;;;11.45;;
30149;SDS011;16962;48.646;9.026;2023-12-04T16:11:38;17.63;;;11.43;;
30149;SDS011;16962;48.646;9.026;2023-12-04T16:14:28;21.27;;;12.60;;
30149;SDS011;16962;48.646;9.026;2023-12-04T16:17:16;25.00;;;16.40;;
30149;SDS011;16962;48.646;9.026;2023-12-04T16:20:04;34.67;;;19.27;;
30149;SDS011;16962;48.646;9.026;2023-12-04T16:23:00;31.27;;;19.70;;
30149;SDS011;16962;48.646;9.026;2023-12-04T16:25:47;33.20;;;19.30;;
30149;SDS011;16962;48.646;9.026;2023-12-04T16:28:35;35.25;;;20.35;;
30149;SDS011;16962;48.646;9.026;2023-12-04T16:31:23;36.55;;;21.58;;
30149;SDS011;16962;48.646;9.026;2023-12-04T16:34:10;35.65;;;20.70;;
30149;SDS011;16962;48.646;9.026;2023-12-04T16:37:00;33.33;;;18.80;;
30149;SDS011;16962;48.646;9.026;2023-12-04T16:39:47;33.60;;;19.95;;
30149;SDS011;16962;48.646;9.026;2023-12-04T16:42:38;34.70;;;19.63;;